sensor_id;sensor_type;location;lat;lon;timestamp;temperature;humidity
43697;DHT22;29301;47.620;19.560;2022-10-16T00:01:57;14.60;99.90
43697;DHT22;29301;47.620;19.560;2022-10-16T00:04:23;14.60;99.90
43697;DHT22;29301;47.620;19.560;2022-10-16T00:06:48;14.60;99.90
43697;DHT22;29301;47.620;19.560;2022-10-16T00:09:14;14.60;99.90
43697;DHT22;29301;47.620;19.560;2022-10-16T00:11:40;14.60;99.90
43697;DHT22;29301;47.620;19.560;2022-10-16T00:14:09;14.60;99.90
43697;DHT22;29301;47.620;19.560;2022-10-16T00:16:35;14.60;99.90
43697;DHT22;29301;47.620;19.560;2022-10-16T00:19:01;14.60;99.90
43697;DHT22;29301;47.620;19.560;2022-10-16T00:21:29;14.50;99.90
43697;DHT22;29301;47.620;19.560;2022-10-16T00:24:00;14.40;99.90
43697;DHT22;29301;47.620;19.560;2022-10-16T00:26:28;14.40;99.90
43697;DHT22;29301;47.620;19.560;2022-10-16T00:28:54;14.50;99.90
43697;DHT22;29301;47.620;19.560;2022-10-16T00:31:21;14.50;99.90
43697;DHT22;29301;47.620;19.560;2022-10-16T00:33:48;14.60;99.90
43697;DHT22;29301;47.620;19.560;2022-10-16T00:36:17;14.50;99.90
43697;DHT22;29301;47.620;19.560;2022-10-16T00:38:43;14.60;99.90
43697;DHT22;29301;47.620;19.560;2022-10-16T00:41:15;14.50;99.90
43697;DHT22;29301;47.620;19.560;2022-10-16T00:43:50;14.60;99.90
43697;DHT22;29301;47.620;19.560;2022-10-16T00:46:17;14.50;99.90
43697;DHT22;29301;47.620;19.560;2022-10-16T00:49:00;14.40;99.90
43697;DHT22;29301;47.620;19.560;2022-10-16T00:51:35;14.40;99.90
43697;DHT22;29301;47.620;19.560;2022-10-16T00:54:03;14.30;99.90
43697;DHT22;29301;47.620;19.560;2022-10-16T00:56:29;14.20;99.90
43697;DHT22;29301;47.620;19.560;2022-10-16T00:58:55;14.10;99.90
43697;DHT22;29301;47.620;19.560;2022-10-16T01:01:20;13.90;99.90
43697;DHT22;29301;47.620;19.560;2022-10-16T01:03:46;14.00;99.90
43697;DHT22;29301;47.620;19.560;2022-10-16T01:14:42;14.10;99.90
43697;DHT22;29301;47.620;19.560;2022-10-16T01:17:12;14.20;99.90
43697;DHT22;29301;47.620;19.560;2022-10-16T01:22:04;14.20;99.90
43697;DHT22;29301;47.620;19.560;2022-10-16T01:24:39;14.20;99.90
43697;DHT22;29301;47.620;19.560;2022-10-16T01:27:09;14.10;99.90
43697;DHT22;29301;47.620;19.560;2022-10-16T01:40:12;13.90;99.90
43697;DHT22;29301;47.620;19.560;2022-10-16T01:42:59;13.70;99.90
43697;DHT22;29301;47.620;19.560;2022-10-16T01:45:26;13.60;99.90
43697;DHT22;29301;47.620;19.560;2022-10-16T01:47:53;13.30;99.90
43697;DHT22;29301;47.620;19.560;2022-10-16T01:50:21;13.20;99.90
43697;DHT22;29301;47.620;19.560;2022-10-16T01:52:49;13.20;99.90
43697;DHT22;29301;47.620;19.560;2022-10-16T01:55:22;13.30;99.90
43697;DHT22;29301;47.620;19.560;2022-10-16T01:57:51;13.40;99.90
43697;DHT22;29301;47.620;19.560;2022-10-16T02:00:19;13.40;99.90
43697;DHT22;29301;47.620;19.560;2022-10-16T02:02:48;13.40;99.90
43697;DHT22;29301;47.620;19.560;2022-10-16T02:06:03;13.40;99.90
43697;DHT22;29301;47.620;19.560;2022-10-16T02:08:04;13.50;99.90
43697;DHT22;29301;47.620;19.560;2022-10-16T02:10:30;13.50;99.90
43697;DHT22;29301;47.620;19.560;2022-10-16T02:13:11;13.50;99.90
43697;DHT22;29301;47.620;19.560;2022-10-16T02:15:38;13.50;99.90
43697;DHT22;29301;47.620;19.560;2022-10-16T02:18:05;13.60;99.90
43697;DHT22;29301;47.620;19.560;2022-10-16T02:21:02;13.50;99.90
43697;DHT22;29301;47.620;19.560;2022-10-16T02:26:27;13.50;99.90
43697;DHT22;29301;47.620;19.560;2022-10-16T02:29:01;13.50;99.90
43697;DHT22;29301;47.620;19.560;2022-10-16T02:31:33;13.40;99.90
43697;DHT22;29301;47.620;19.560;2022-10-16T02:34:01;13.30;99.90
43697;DHT22;29301;47.620;19.560;2022-10-16T02:36:30;13.30;99.90
43697;DHT22;29301;47.620;19.560;2022-10-16T02:38:58;13.30;99.90
43697;DHT22;29301;47.620;19.560;2022-10-16T02:41:26;13.30;99.90
43697;DHT22;29301;47.620;19.560;2022-10-16T02:43:51;13.30;99.90
43697;DHT22;29301;47.620;19.560;2022-10-16T02:46:17;13.10;99.90
43697;DHT22;29301;47.620;19.560;2022-10-16T02:48:43;12.90;99.90
43697;DHT22;29301;47.620;19.560;2022-10-16T02:51:09;12.80;99.90
43697;DHT22;29301;47.620;19.560;2022-10-16T02:53:35;12.80;99.90
43697;DHT22;29301;47.620;19.560;2022-10-16T02:56:01;12.80;99.90
43697;DHT22;29301;47.620;19.560;2022-10-16T02:58:27;12.80;99.90
43697;DHT22;29301;47.620;19.560;2022-10-16T03:00:52;12.90;99.90
43697;DHT22;29301;47.620;19.560;2022-10-16T03:03:18;12.80;99.90
43697;DHT22;29301;47.620;19.560;2022-10-16T03:05:44;12.80;99.90
43697;DHT22;29301;47.620;19.560;2022-10-16T03:08:11;12.70;99.90
43697;DHT22;29301;47.620;19.560;2022-10-16T03:10:37;12.40;99.90
43697;DHT22;29301;47.620;19.560;2022-10-16T03:13:03;12.30;99.90
43697;DHT22;29301;47.620;19.560;2022-10-16T03:15:28;12.30;99.90
43697;DHT22;29301;47.620;19.560;2022-10-16T03:17:55;12.40;99.90
43697;DHT22;29301;47.620;19.560;2022-10-16T03:20:22;12.40;99.90
43697;DHT22;29301;47.620;19.560;2022-10-16T03:22:48;12.40;99.90
43697;DHT22;29301;47.620;19.560;2022-10-16T03:25:13;12.40;99.90
43697;DHT22;29301;47.620;19.560;2022-10-16T03:27:39;12.40;99.90
43697;DHT22;29301;47.620;19.560;2022-10-16T03:30:05;12.40;99.90
43697;DHT22;29301;47.620;19.560;2022-10-16T03:32:31;12.40;99.90
43697;DHT22;29301;47.620;19.560;2022-10-16T03:34:57;12.40;99.90
43697;DHT22;29301;47.620;19.560;2022-10-16T03:37:23;12.40;99.90
43697;DHT22;29301;47.620;19.560;2022-10-16T03:39:48;12.30;99.90
43697;DHT22;29301;47.620;19.560;2022-10-16T03:42:14;12.30;99.90
43697;DHT22;29301;47.620;19.560;2022-10-16T03:44:40;12.20;99.90
43697;DHT22;29301;47.620;19.560;2022-10-16T03:47:05;12.00;99.90
43697;DHT22;29301;47.620;19.560;2022-10-16T03:49:31;12.10;99.90
43697;DHT22;29301;47.620;19.560;2022-10-16T03:51:57;12.00;99.90
43697;DHT22;29301;47.620;19.560;2022-10-16T03:54:22;12.00;99.90
43697;DHT22;29301;47.620;19.560;2022-10-16T03:56:48;11.80;99.90
43697;DHT22;29301;47.620;19.560;2022-10-16T03:59:14;11.50;99.90
43697;DHT22;29301;47.620;19.560;2022-10-16T04:01:40;11.20;99.90
43697;DHT22;29301;47.620;19.560;2022-10-16T04:04:06;10.90;99.90
43697;DHT22;29301;47.620;19.560;2022-10-16T04:06:31;11.00;99.90
43697;DHT22;29301;47.620;19.560;2022-10-16T04:08:57;10.90;99.90
43697;DHT22;29301;47.620;19.560;2022-10-16T04:11:23;11.00;99.90
43697;DHT22;29301;47.620;19.560;2022-10-16T04:13:48;11.20;99.90
43697;DHT22;29301;47.620;19.560;2022-10-16T04:16:14;11.30;99.90
43697;DHT22;29301;47.620;19.560;2022-10-16T04:18:40;11.30;99.90
43697;DHT22;29301;47.620;19.560;2022-10-16T04:21:06;11.40;99.90
43697;DHT22;29301;47.620;19.560;2022-10-16T04:23:32;11.50;99.90
43697;DHT22;29301;47.620;19.560;2022-10-16T04:25:59;11.50;99.90
43697;DHT22;29301;47.620;19.560;2022-10-16T04:28:25;11.50;99.90
43697;DHT22;29301;47.620;19.560;2022-10-16T04:30:52;11.50;99.90
43697;DHT22;29301;47.620;19.560;2022-10-16T04:33:18;11.60;99.90
43697;DHT22;29301;47.620;19.560;2022-10-16T04:35:43;11.60;99.90
43697;DHT22;29301;47.620;19.560;2022-10-16T04:38:09;11.40;99.90
43697;DHT22;29301;47.620;19.560;2022-10-16T04:40:35;11.10;99.90
43697;DHT22;29301;47.620;19.560;2022-10-16T04:43:04;10.80;99.90
43697;DHT22;29301;47.620;19.560;2022-10-16T04:45:29;10.80;99.90
43697;DHT22;29301;47.620;19.560;2022-10-16T04:47:59;10.80;99.90
43697;DHT22;29301;47.620;19.560;2022-10-16T04:50:25;10.90;99.90
43697;DHT22;29301;47.620;19.560;2022-10-16T04:52:50;11.00;99.90
43697;DHT22;29301;47.620;19.560;2022-10-16T04:55:16;11.10;99.90
43697;DHT22;29301;47.620;19.560;2022-10-16T04:57:42;11.20;99.90
43697;DHT22;29301;47.620;19.560;2022-10-16T05:00:08;11.10;99.90
43697;DHT22;29301;47.620;19.560;2022-10-16T05:02:34;11.20;99.90
43697;DHT22;29301;47.620;19.560;2022-10-16T05:05:00;11.20;99.90
43697;DHT22;29301;47.620;19.560;2022-10-16T05:07:25;11.20;99.90
43697;DHT22;29301;47.620;19.560;2022-10-16T05:09:51;11.20;99.90
43697;DHT22;29301;47.620;19.560;2022-10-16T05:12:17;11.30;99.90
43697;DHT22;29301;47.620;19.560;2022-10-16T05:14:43;11.20;99.90
43697;DHT22;29301;47.620;19.560;2022-10-16T05:17:08;11.20;99.90
43697;DHT22;29301;47.620;19.560;2022-10-16T05:19:34;11.10;99.90
43697;DHT22;29301;47.620;19.560;2022-10-16T05:22:00;11.00;99.90
43697;DHT22;29301;47.620;19.560;2022-10-16T05:24:26;11.00;99.90
43697;DHT22;29301;47.620;19.560;2022-10-16T05:26:51;11.10;99.90
43697;DHT22;29301;47.620;19.560;2022-10-16T05:29:17;11.10;99.90
43697;DHT22;29301;47.620;19.560;2022-10-16T05:31:43;11.10;99.90
43697;DHT22;29301;47.620;19.560;2022-10-16T05:34:09;11.00;99.90
43697;DHT22;29301;47.620;19.560;2022-10-16T05:36:34;11.00;99.90
43697;DHT22;29301;47.620;19.560;2022-10-16T05:39:00;11.10;99.90
43697;DHT22;29301;47.620;19.560;2022-10-16T05:41:26;11.10;99.90
43697;DHT22;29301;47.620;19.560;2022-10-16T05:43:52;11.50;99.90
43697;DHT22;29301;47.620;19.560;2022-10-16T05:46:19;11.60;99.90
43697;DHT22;29301;47.620;19.560;2022-10-16T05:48:45;11.70;99.90
43697;DHT22;29301;47.620;19.560;2022-10-16T05:51:12;11.80;99.90
43697;DHT22;29301;47.620;19.560;2022-10-16T05:53:39;11.80;99.90
43697;DHT22;29301;47.620;19.560;2022-10-16T05:56:07;11.90;99.90
43697;DHT22;29301;47.620;19.560;2022-10-16T05:58:35;11.90;99.90
43697;DHT22;29301;47.620;19.560;2022-10-16T06:01:10;11.80;99.90
43697;DHT22;29301;47.620;19.560;2022-10-16T06:03:37;11.80;99.90
43697;DHT22;29301;47.620;19.560;2022-10-16T06:06:14;11.70;99.90
43697;DHT22;29301;47.620;19.560;2022-10-16T06:08:41;11.70;99.90
43697;DHT22;29301;47.620;19.560;2022-10-16T06:11:09;11.70;99.90
43697;DHT22;29301;47.620;19.560;2022-10-16T06:13:35;11.80;99.90
43697;DHT22;29301;47.620;19.560;2022-10-16T06:16:02;11.90;99.90
43697;DHT22;29301;47.620;19.560;2022-10-16T06:18:29;11.90;99.90
43697;DHT22;29301;47.620;19.560;2022-10-16T06:20:56;11.90;99.90
43697;DHT22;29301;47.620;19.560;2022-10-16T06:23:22;12.00;99.90
43697;DHT22;29301;47.620;19.560;2022-10-16T06:25:47;12.10;99.90
43697;DHT22;29301;47.620;19.560;2022-10-16T06:28:14;12.10;99.90
43697;DHT22;29301;47.620;19.560;2022-10-16T06:30:40;12.10;99.90
43697;DHT22;29301;47.620;19.560;2022-10-16T06:33:06;11.80;99.90
43697;DHT22;29301;47.620;19.560;2022-10-16T06:35:31;11.60;99.90
43697;DHT22;29301;47.620;19.560;2022-10-16T06:37:57;11.40;99.90
43697;DHT22;29301;47.620;19.560;2022-10-16T06:40:23;11.40;99.90
43697;DHT22;29301;47.620;19.560;2022-10-16T06:42:49;11.30;99.90
43697;DHT22;29301;47.620;19.560;2022-10-16T06:45:17;11.50;99.90
43697;DHT22;29301;47.620;19.560;2022-10-16T06:47:42;11.60;99.90
43697;DHT22;29301;47.620;19.560;2022-10-16T06:50:08;11.80;99.90
43697;DHT22;29301;47.620;19.560;2022-10-16T06:52:34;12.00;99.90
43697;DHT22;29301;47.620;19.560;2022-10-16T06:55:00;12.20;99.90
43697;DHT22;29301;47.620;19.560;2022-10-16T06:57:26;12.30;99.90
43697;DHT22;29301;47.620;19.560;2022-10-16T06:59:52;12.40;99.90
43697;DHT22;29301;47.620;19.560;2022-10-16T07:02:17;12.20;99.90
43697;DHT22;29301;47.620;19.560;2022-10-16T07:04:43;12.20;99.90
43697;DHT22;29301;47.620;19.560;2022-10-16T07:07:09;12.40;99.90
43697;DHT22;29301;47.620;19.560;2022-10-16T07:09:34;12.70;99.90
43697;DHT22;29301;47.620;19.560;2022-10-16T07:12:00;13.00;99.90
43697;DHT22;29301;47.620;19.560;2022-10-16T07:14:26;13.30;98.70
43697;DHT22;29301;47.620;19.560;2022-10-16T07:16:51;13.20;97.30
43697;DHT22;29301;47.620;19.560;2022-10-16T07:19:17;13.30;97.50
43697;DHT22;29301;47.620;19.560;2022-10-16T07:21:44;13.40;97.70
43697;DHT22;29301;47.620;19.560;2022-10-16T07:24:18;13.40;96.30
43697;DHT22;29301;47.620;19.560;2022-10-16T07:26:45;13.40;95.10
43697;DHT22;29301;47.620;19.560;2022-10-16T07:29:16;13.30;95.80
43697;DHT22;29301;47.620;19.560;2022-10-16T07:31:44;13.30;95.70
43697;DHT22;29301;47.620;19.560;2022-10-16T07:34:12;13.60;96.90
43697;DHT22;29301;47.620;19.560;2022-10-16T07:36:37;14.00;95.50
43697;DHT22;29301;47.620;19.560;2022-10-16T07:39:03;14.30;94.20
43697;DHT22;29301;47.620;19.560;2022-10-16T07:41:29;14.50;92.50
43697;DHT22;29301;47.620;19.560;2022-10-16T07:43:55;14.70;92.30
43697;DHT22;29301;47.620;19.560;2022-10-16T07:46:23;15.00;91.60
43697;DHT22;29301;47.620;19.560;2022-10-16T07:48:49;15.20;91.50
43697;DHT22;29301;47.620;19.560;2022-10-16T07:51:17;15.40;90.60
43697;DHT22;29301;47.620;19.560;2022-10-16T07:53:43;15.50;89.80
43697;DHT22;29301;47.620;19.560;2022-10-16T07:56:09;15.70;88.90
43697;DHT22;29301;47.620;19.560;2022-10-16T07:58:35;15.80;83.80
43697;DHT22;29301;47.620;19.560;2022-10-16T08:01:06;15.70;81.70
43697;DHT22;29301;47.620;19.560;2022-10-16T08:03:32;15.50;81.40
43697;DHT22;29301;47.620;19.560;2022-10-16T08:05:58;15.20;83.30
43697;DHT22;29301;47.620;19.560;2022-10-16T08:08:24;14.90;84.20
43697;DHT22;29301;47.620;19.560;2022-10-16T08:10:50;15.00;86.30
43697;DHT22;29301;47.620;19.560;2022-10-16T08:13:16;15.00;83.80
43697;DHT22;29301;47.620;19.560;2022-10-16T08:15:42;15.00;86.90
43697;DHT22;29301;47.620;19.560;2022-10-16T08:18:10;15.20;85.80
43697;DHT22;29301;47.620;19.560;2022-10-16T08:20:36;15.30;82.90
43697;DHT22;29301;47.620;19.560;2022-10-16T08:23:02;15.40;83.70
43697;DHT22;29301;47.620;19.560;2022-10-16T08:25:28;15.30;83.50
43697;DHT22;29301;47.620;19.560;2022-10-16T08:27:54;15.30;83.80
43697;DHT22;29301;47.620;19.560;2022-10-16T08:30:22;15.70;82.10
43697;DHT22;29301;47.620;19.560;2022-10-16T08:32:48;15.60;81.00
43697;DHT22;29301;47.620;19.560;2022-10-16T08:35:14;15.60;80.60
43697;DHT22;29301;47.620;19.560;2022-10-16T08:37:41;15.70;82.30
43697;DHT22;29301;47.620;19.560;2022-10-16T08:40:17;15.80;80.10
43697;DHT22;29301;47.620;19.560;2022-10-16T08:48:21;16.10;82.00
43697;DHT22;29301;47.620;19.560;2022-10-16T08:50:52;16.00;78.70
43697;DHT22;29301;47.620;19.560;2022-10-16T08:53:26;16.20;80.10
43697;DHT22;29301;47.620;19.560;2022-10-16T08:55:53;16.40;79.20
43697;DHT22;29301;47.620;19.560;2022-10-16T08:58:22;16.60;76.60
43697;DHT22;29301;47.620;19.560;2022-10-16T09:00:59;16.30;76.30
43697;DHT22;29301;47.620;19.560;2022-10-16T09:20:13;16.80;75.60
43697;DHT22;29301;47.620;19.560;2022-10-16T09:22:41;16.80;75.50
43697;DHT22;29301;47.620;19.560;2022-10-16T09:25:15;17.20;75.50
43697;DHT22;29301;47.620;19.560;2022-10-16T09:27:44;17.50;74.30
43697;DHT22;29301;47.620;19.560;2022-10-16T09:30:19;17.40;72.50
43697;DHT22;29301;47.620;19.560;2022-10-16T09:32:48;17.30;73.30
43697;DHT22;29301;47.620;19.560;2022-10-16T09:35:22;17.40;73.50
43697;DHT22;29301;47.620;19.560;2022-10-16T09:37:52;17.20;72.30
43697;DHT22;29301;47.620;19.560;2022-10-16T09:40:29;17.20;72.80
43697;DHT22;29301;47.620;19.560;2022-10-16T09:46:03;18.00;72.80
43697;DHT22;29301;47.620;19.560;2022-10-16T09:48:44;18.30;70.20
43697;DHT22;29301;47.620;19.560;2022-10-16T09:53:59;18.20;69.90
43697;DHT22;29301;47.620;19.560;2022-10-16T09:56:31;18.00;70.00
43697;DHT22;29301;47.620;19.560;2022-10-16T09:59:00;18.00;70.30
43697;DHT22;29301;47.620;19.560;2022-10-16T10:01:37;18.10;69.70
43697;DHT22;29301;47.620;19.560;2022-10-16T10:04:04;17.90;69.40
43697;DHT22;29301;47.620;19.560;2022-10-16T10:06:45;17.70;70.10
43697;DHT22;29301;47.620;19.560;2022-10-16T10:11:59;18.20;70.20
43697;DHT22;29301;47.620;19.560;2022-10-16T10:14:37;18.50;70.70
43697;DHT22;29301;47.620;19.560;2022-10-16T10:17:10;18.80;68.70
43697;DHT22;29301;47.620;19.560;2022-10-16T10:19:40;18.80;68.10
43697;DHT22;29301;47.620;19.560;2022-10-16T10:22:29;18.90;67.30
43697;DHT22;29301;47.620;19.560;2022-10-16T10:24:56;18.80;67.80
43697;DHT22;29301;47.620;19.560;2022-10-16T10:27:32;19.00;67.60
43697;DHT22;29301;47.620;19.560;2022-10-16T10:30:08;19.10;66.80
43697;DHT22;29301;47.620;19.560;2022-10-16T10:35:26;18.80;66.50
43697;DHT22;29301;47.620;19.560;2022-10-16T10:38:22;19.00;67.00
43697;DHT22;29301;47.620;19.560;2022-10-16T10:54:20;18.90;65.50
43697;DHT22;29301;47.620;19.560;2022-10-16T11:05:40;19.50;65.50
43697;DHT22;29301;47.620;19.560;2022-10-16T11:08:22;19.40;64.60
43697;DHT22;29301;47.620;19.560;2022-10-16T11:10:58;19.30;64.90
43697;DHT22;29301;47.620;19.560;2022-10-16T11:13:40;19.30;64.70
43697;DHT22;29301;47.620;19.560;2022-10-16T11:16:26;19.30;64.90
43697;DHT22;29301;47.620;19.560;2022-10-16T11:19:19;19.40;64.80
43697;DHT22;29301;47.620;19.560;2022-10-16T11:21:54;19.60;64.80
43697;DHT22;29301;47.620;19.560;2022-10-16T11:24:42;19.70;64.50
43697;DHT22;29301;47.620;19.560;2022-10-16T11:27:27;19.70;64.60
43697;DHT22;29301;47.620;19.560;2022-10-16T11:29:59;19.70;63.90
43697;DHT22;29301;47.620;19.560;2022-10-16T11:32:42;19.40;63.90
43697;DHT22;29301;47.620;19.560;2022-10-16T11:35:19;19.50;63.40
43697;DHT22;29301;47.620;19.560;2022-10-16T11:37:48;19.20;63.30
43697;DHT22;29301;47.620;19.560;2022-10-16T11:40:23;19.20;63.50
43697;DHT22;29301;47.620;19.560;2022-10-16T11:43:15;19.40;63.70
43697;DHT22;29301;47.620;19.560;2022-10-16T11:45:49;19.40;63.20
43697;DHT22;29301;47.620;19.560;2022-10-16T11:48:30;19.40;62.90
43697;DHT22;29301;47.620;19.560;2022-10-16T11:56:21;19.50;62.90
43697;DHT22;29301;47.620;19.560;2022-10-16T12:01:48;19.60;62.20
43697;DHT22;29301;47.620;19.560;2022-10-16T12:04:46;19.70;62.50
43697;DHT22;29301;47.620;19.560;2022-10-16T12:07:16;19.70;61.90
43697;DHT22;29301;47.620;19.560;2022-10-16T12:09:44;19.60;61.30
43697;DHT22;29301;47.620;19.560;2022-10-16T12:17:43;19.70;60.70
43697;DHT22;29301;47.620;19.560;2022-10-16T12:22:48;19.60;60.30
43697;DHT22;29301;47.620;19.560;2022-10-16T12:25:26;19.60;60.40
43697;DHT22;29301;47.620;19.560;2022-10-16T12:27:58;19.70;60.40
43697;DHT22;29301;47.620;19.560;2022-10-16T12:30:26;19.70;60.10
43697;DHT22;29301;47.620;19.560;2022-10-16T12:32:55;19.60;59.70
43697;DHT22;29301;47.620;19.560;2022-10-16T12:35:24;19.60;60.10
43697;DHT22;29301;47.620;19.560;2022-10-16T12:37:51;19.80;60.30
43697;DHT22;29301;47.620;19.560;2022-10-16T12:40:27;19.80;59.80
43697;DHT22;29301;47.620;19.560;2022-10-16T12:42:53;19.70;59.40
43697;DHT22;29301;47.620;19.560;2022-10-16T12:45:33;19.60;59.50
43697;DHT22;29301;47.620;19.560;2022-10-16T12:48:04;19.70;60.00
43697;DHT22;29301;47.620;19.560;2022-10-16T12:50:43;19.80;59.60
43697;DHT22;29301;47.620;19.560;2022-10-16T12:53:21;19.70;59.80
43697;DHT22;29301;47.620;19.560;2022-10-16T12:56:08;19.80;59.40
43697;DHT22;29301;47.620;19.560;2022-10-16T12:59:04;19.70;59.00
43697;DHT22;29301;47.620;19.560;2022-10-16T13:04:47;19.90;59.40
43697;DHT22;29301;47.620;19.560;2022-10-16T13:16:00;19.90;59.20
43697;DHT22;29301;47.620;19.560;2022-10-16T13:21:22;20.00;59.20
43697;DHT22;29301;47.620;19.560;2022-10-16T13:27:09;19.80;59.40
43697;DHT22;29301;47.620;19.560;2022-10-16T13:29:39;19.80;59.30
43697;DHT22;29301;47.620;19.560;2022-10-16T13:32:09;19.70;59.50
43697;DHT22;29301;47.620;19.560;2022-10-16T13:34:45;19.70;59.50
43697;DHT22;29301;47.620;19.560;2022-10-16T13:37:19;19.70;60.20
43697;DHT22;29301;47.620;19.560;2022-10-16T13:39:45;19.80;60.30
43697;DHT22;29301;47.620;19.560;2022-10-16T13:42:17;19.80;60.00
43697;DHT22;29301;47.620;19.560;2022-10-16T13:44:50;19.90;60.20
43697;DHT22;29301;47.620;19.560;2022-10-16T13:47:27;20.00;59.60
43697;DHT22;29301;47.620;19.560;2022-10-16T13:50:05;19.90;59.70
43697;DHT22;29301;47.620;19.560;2022-10-16T13:52:31;19.90;59.90
43697;DHT22;29301;47.620;19.560;2022-10-16T13:54:57;19.80;59.40
43697;DHT22;29301;47.620;19.560;2022-10-16T13:57:24;19.70;60.00
43697;DHT22;29301;47.620;19.560;2022-10-16T13:59:51;19.70;59.70
43697;DHT22;29301;47.620;19.560;2022-10-16T14:04:54;19.60;60.20
43697;DHT22;29301;47.620;19.560;2022-10-16T14:07:31;19.50;59.90
43697;DHT22;29301;47.620;19.560;2022-10-16T14:10:07;19.50;60.10
43697;DHT22;29301;47.620;19.560;2022-10-16T14:12:43;19.50;60.30
43697;DHT22;29301;47.620;19.560;2022-10-16T14:15:17;19.50;60.50
43697;DHT22;29301;47.620;19.560;2022-10-16T14:17:46;19.40;60.70
43697;DHT22;29301;47.620;19.560;2022-10-16T14:20:15;19.40;61.10
43697;DHT22;29301;47.620;19.560;2022-10-16T14:22:42;19.40;61.20
43697;DHT22;29301;47.620;19.560;2022-10-16T14:28:03;19.50;61.40
43697;DHT22;29301;47.620;19.560;2022-10-16T14:30:31;19.50;61.40
43697;DHT22;29301;47.620;19.560;2022-10-16T14:32:58;19.60;61.70
43697;DHT22;29301;47.620;19.560;2022-10-16T14:37:56;19.60;61.90
43697;DHT22;29301;47.620;19.560;2022-10-16T14:40:25;19.60;61.90
43697;DHT22;29301;47.620;19.560;2022-10-16T14:42:51;19.60;62.00
43697;DHT22;29301;47.620;19.560;2022-10-16T14:45:22;19.60;61.80
43697;DHT22;29301;47.620;19.560;2022-10-16T14:47:54;19.60;61.50
43697;DHT22;29301;47.620;19.560;2022-10-16T14:50:21;19.60;61.50
43697;DHT22;29301;47.620;19.560;2022-10-16T14:52:47;19.50;61.50
43697;DHT22;29301;47.620;19.560;2022-10-16T14:55:13;19.50;61.80
43697;DHT22;29301;47.620;19.560;2022-10-16T14:57:39;19.50;61.50
43697;DHT22;29301;47.620;19.560;2022-10-16T15:00:23;19.50;61.80
43697;DHT22;29301;47.620;19.560;2022-10-16T15:02:50;19.50;62.30
43697;DHT22;29301;47.620;19.560;2022-10-16T15:05:21;19.50;62.50
43697;DHT22;29301;47.620;19.560;2022-10-16T15:07:48;19.40;62.50
43697;DHT22;29301;47.620;19.560;2022-10-16T15:10:18;19.40;62.60
43697;DHT22;29301;47.620;19.560;2022-10-16T15:12:45;19.40;62.70
43697;DHT22;29301;47.620;19.560;2022-10-16T15:17:55;19.30;63.40
43697;DHT22;29301;47.620;19.560;2022-10-16T15:20:26;19.30;63.70
43697;DHT22;29301;47.620;19.560;2022-10-16T15:22:52;19.20;63.90
43697;DHT22;29301;47.620;19.560;2022-10-16T15:27:52;19.20;64.60
43697;DHT22;29301;47.620;19.560;2022-10-16T15:30:18;19.20;65.00
43697;DHT22;29301;47.620;19.560;2022-10-16T15:32:43;19.20;65.10
43697;DHT22;29301;47.620;19.560;2022-10-16T15:35:09;19.20;65.20
43697;DHT22;29301;47.620;19.560;2022-10-16T15:37:35;19.10;65.40
43697;DHT22;29301;47.620;19.560;2022-10-16T15:40:01;19.00;65.90
43697;DHT22;29301;47.620;19.560;2022-10-16T15:42:26;18.80;67.50
43697;DHT22;29301;47.620;19.560;2022-10-16T15:44:52;18.60;68.70
43697;DHT22;29301;47.620;19.560;2022-10-16T15:47:18;18.50;69.80
43697;DHT22;29301;47.620;19.560;2022-10-16T15:49:43;18.30;70.80
43697;DHT22;29301;47.620;19.560;2022-10-16T15:52:09;18.10;71.60
43697;DHT22;29301;47.620;19.560;2022-10-16T15:54:35;17.90;73.10
43697;DHT22;29301;47.620;19.560;2022-10-16T15:57:00;17.70;73.60
43697;DHT22;29301;47.620;19.560;2022-10-16T15:59:26;17.60;74.30
43697;DHT22;29301;47.620;19.560;2022-10-16T16:01:52;17.50;75.10
43697;DHT22;29301;47.620;19.560;2022-10-16T16:04:17;17.40;75.70
43697;DHT22;29301;47.620;19.560;2022-10-16T16:06:43;17.30;76.10
43697;DHT22;29301;47.620;19.560;2022-10-16T16:09:12;17.20;77.30
43697;DHT22;29301;47.620;19.560;2022-10-16T16:11:39;17.10;77.90
43697;DHT22;29301;47.620;19.560;2022-10-16T16:14:10;17.10;78.90
43697;DHT22;29301;47.620;19.560;2022-10-16T16:16:37;17.10;79.50
43697;DHT22;29301;47.620;19.560;2022-10-16T16:19:04;17.10;79.00
43697;DHT22;29301;47.620;19.560;2022-10-16T16:21:32;17.10;78.90
43697;DHT22;29301;47.620;19.560;2022-10-16T16:23:58;17.10;78.80
43697;DHT22;29301;47.620;19.560;2022-10-16T16:26:26;17.10;78.40
43697;DHT22;29301;47.620;19.560;2022-10-16T16:28:54;17.10;78.50
43697;DHT22;29301;47.620;19.560;2022-10-16T16:31:24;16.90;78.80
43697;DHT22;29301;47.620;19.560;2022-10-16T16:33:49;16.80;78.80
43697;DHT22;29301;47.620;19.560;2022-10-16T16:36:17;16.60;79.20
43697;DHT22;29301;47.620;19.560;2022-10-16T16:38:44;16.40;80.90
43697;DHT22;29301;47.620;19.560;2022-10-16T16:41:14;16.10;82.40
43697;DHT22;29301;47.620;19.560;2022-10-16T16:43:40;16.10;83.40
43697;DHT22;29301;47.620;19.560;2022-10-16T16:46:09;16.20;83.20
43697;DHT22;29301;47.620;19.560;2022-10-16T16:48:35;16.20;82.80
43697;DHT22;29301;47.620;19.560;2022-10-16T16:51:09;16.40;82.10
43697;DHT22;29301;47.620;19.560;2022-10-16T16:53:35;16.50;81.00
43697;DHT22;29301;47.620;19.560;2022-10-16T16:56:05;16.50;80.30
43697;DHT22;29301;47.620;19.560;2022-10-16T16:58:32;16.50;79.80
43697;DHT22;29301;47.620;19.560;2022-10-16T17:00:58;16.50;79.30
43697;DHT22;29301;47.620;19.560;2022-10-16T17:03:28;16.50;78.90
43697;DHT22;29301;47.620;19.560;2022-10-16T17:06:07;16.40;78.60
43697;DHT22;29301;47.620;19.560;2022-10-16T17:08:34;16.40;78.90
43697;DHT22;29301;47.620;19.560;2022-10-16T17:11:00;16.30;79.40
43697;DHT22;29301;47.620;19.560;2022-10-16T17:13:28;16.30;80.00
43697;DHT22;29301;47.620;19.560;2022-10-16T17:15:54;16.30;80.10
43697;DHT22;29301;47.620;19.560;2022-10-16T17:18:21;16.20;80.10
43697;DHT22;29301;47.620;19.560;2022-10-16T17:20:48;16.10;80.40
43697;DHT22;29301;47.620;19.560;2022-10-16T17:23:16;16.00;81.10
43697;DHT22;29301;47.620;19.560;2022-10-16T17:25:42;15.90;81.20
43697;DHT22;29301;47.620;19.560;2022-10-16T17:28:09;15.90;81.80
43697;DHT22;29301;47.620;19.560;2022-10-16T17:30:37;15.80;81.90
43697;DHT22;29301;47.620;19.560;2022-10-16T17:33:04;15.70;82.20
43697;DHT22;29301;47.620;19.560;2022-10-16T17:35:38;15.70;82.40